Главная страница
METAR-TAF:

METAR-TAF

Аэропорты :

Уагадугу, Буркина-Фасо

широта: 12-21N, долгота: 001-31W, высота над уровнем моря: 316 м

Текущие метеонаблюдения

Эта сводка был подготовлена 1 час и 13 минут назад, в 00:00 UTC
Ветер 2 Узел от западно-северо-западный
Температура 29°C
Влажность 66%
Давление 1015 hPa
Видимость 10 км и более
Нет облачности ниже 1500 м, и нет кучево-дождевой облачности

METAR: DFFD 160000Z 30002KT CAVOK 29/22 Q1015 NOSIG

Время: 01:13 (01:13 UTC)

Прогноз

Эта сводка был подготовлена 2 часа и 13 минут назад, в 23:00 UTC
Прогноз действительный с 16-го 00 UTC до 17-го 06 UTC
Ветер 7 Узел переменных направлений
Видимость 10 км и более
Нет облачности ниже 1500 м, и нет кучево-дождевой облачности
Вероятность 30% :
временами
С 16-го 16 UTC до 16-го 24 UTC
Видимость: 4000 м
Отдельные облака на высоте 2000 фута
небольшая облачность на высоте 3600 фута, Кучево-дождевые.
гроза, дождь

TAF: DFFD 152300Z 1600/1706 VRB07KT CAVOK PROB30 TEMPO 1616/1624 4000 TSRA SCT020 FEW036CB

Метеонаблюдения и прогнозы для более 4000 аэропортов (сводки METAR и TAF).

Имеющиеся станции представлены на карте желтыми и красными точками.

Чтобы увидеть название станции, наведите на нее мышь.

Затем щелкните, чтобы увидеть метеонаблюдения и метеопрогнозы.

Управление картой: чтобы увеличить масштаб, щелкните зеленые кнопки с черным крестиком; чтобы уменьшить масштаб, щелкните зеленую кнопку с тире; для просмотра соседних карт щелкайте зеленые стрелки.


METAR-TAF: